Time;durP1;ratioP1;P1;durP2;ratioP2;P2;SDS_P1;SDS_P2;PMS_P1;PMS_P2;Temp;Humidity;BMP_temperature;BMP_pressure;BME280_temperature;BME280_humidity;BME280_pressure;Samples;Min_cycle;Max_cycle;Signal;HPM_P1;HPM_P2
2023/09/03 00:00:46;;;;;;;10.75;7.40;;;;;;;17.82;60.50;100898.63;5093166;28;20204;-58
2023/09/03 00:03:14;;;;;;;9.60;6.82;;;;;;;17.80;61.27;100897.78;5093333;28;20626;-60
2023/09/03 00:05:48;;;;;;;10.77;7.00;;;;;;;17.73;61.06;100898.81;5081227;28;20242;-58
2023/09/03 00:08:17;;;;;;;7.78;6.40;;;;;;;17.66;62.20;100893.81;5091909;28;20204;-61
2023/09/03 00:10:49;;;;;;;11.13;7.18;;;;;;;17.59;62.81;100899.19;5092817;28;20262;-57
2023/09/03 00:13:17;;;;;;;9.93;7.68;;;;;;;17.53;62.24;100895.91;5091307;28;20209;-62
2023/09/03 00:15:45;;;;;;;11.13;7.70;;;;;;;17.46;62.08;100892.59;5082511;28;20197;-59
2023/09/03 00:18:14;;;;;;;11.32;7.15;;;;;;;17.45;62.89;100900.44;5088684;28;20243;-58
2023/09/03 00:20:55;;;;;;;9.82;6.85;;;;;;;17.38;63.23;100903.22;5091091;28;20208;-57
2023/09/03 00:23:24;;;;;;;10.57;8.07;;;;;;;17.33;63.26;100906.84;5089134;28;20235;-61
2023/09/03 00:25:52;;;;;;;13.32;8.75;;;;;;;17.30;62.94;100910.38;5089074;28;20667;-66
2023/09/03 00:28:20;;;;;;;10.40;7.72;;;;;;;17.28;62.33;100901.75;5090479;28;20201;-63
2023/09/03 00:31:01;;;;;;;13.10;7.57;;;;;;;17.27;62.29;100892.22;5087996;28;20296;-57
2023/09/03 00:33:29;;;;;;;10.45;8.00;;;;;;;17.25;61.78;100911.41;5092748;28;20370;-57
2023/09/03 00:35:57;;;;;;;12.38;7.55;;;;;;;17.19;61.86;100901.97;5085965;28;20209;-58
2023/09/03 00:38:27;;;;;;;10.85;8.00;;;;;;;17.22;61.58;100901.91;5077060;28;20216;-58
2023/09/03 00:40:55;;;;;;;11.75;7.97;;;;;;;17.25;61.17;100900.97;5083082;28;20255;-58
2023/09/03 00:43:23;;;;;;;10.95;8.07;;;;;;;17.30;61.11;100905.16;5087566;28;20327;-58
2023/09/03 00:45:52;;;;;;;10.88;7.50;;;;;;;17.35;61.21;100903.31;5088950;28;20224;-58
2023/09/03 00:48:28;;;;;;;13.13;7.65;;;;;;;17.40;60.93;100897.97;5097390;28;20628;-58
2023/09/03 00:50:59;;;;;;;9.93;7.55;;;;;;;17.45;61.33;100897.84;5092758;28;20215;-57
2023/09/03 00:53:30;;;;;;;8.40;7.50;;;;;;;17.47;61.52;100896.06;5086236;28;20640;-58
2023/09/03 00:55:59;;;;;;;9.23;7.30;;;;;;;17.47;62.02;100901.28;5092720;28;20659;-60
2023/09/03 00:58:28;;;;;;;10.68;7.32;;;;;;;17.42;62.37;100895.34;5087396;28;20201;-59
2023/09/03 01:00:56;;;;;;;9.30;7.47;;;;;;;17.36;62.76;100894.59;5085360;28;20205;-59
2023/09/03 01:03:26;;;;;;;9.95;7.43;;;;;;;17.30;61.96;100889.53;5087531;28;20300;-58
2023/09/03 01:05:54;;;;;;;12.45;8.48;;;;;;;17.30;61.63;100889.53;5083656;28;20211;-60
2023/09/03 01:08:23;;;;;;;10.27;7.80;;;;;;;17.31;61.22;100891.25;5078291;28;20213;-57
2023/09/03 01:11:04;;;;;;;10.65;8.50;;;;;;;17.31;61.44;100886.06;5086267;28;20744;-58
2023/09/03 01:13:38;;;;;;;9.60;8.15;;;;;;;17.31;61.14;100890.41;5084986;28;20341;-59
2023/09/03 01:16:23;;;;;;;11.65;8.07;;;;;;;17.30;61.22;100884.31;5085803;28;20200;-62
2023/09/03 01:18:53;;;;;;;11.07;8.05;;;;;;;17.31;61.51;100890.41;5086277;28;20661;-60
2023/09/03 01:21:44;;;;;;;9.85;7.93;;;;;;;17.30;62.26;100888.69;5092870;28;20297;-59
2023/09/03 01:24:27;;;;;;;11.48;8.13;;;;;;;17.25;63.04;100886.19;5086092;28;20223;-61
2023/09/03 01:27:09;;;;;;;11.32;7.60;;;;;;;17.23;63.59;100889.72;5083797;28;20667;-58
2023/09/03 01:29:41;;;;;;;11.80;8.15;;;;;;;17.17;63.68;100898.56;5086284;28;20295;-63
2023/09/03 01:32:12;;;;;;;10.65;7.68;;;;;;;17.11;63.47;100896.09;5087570;28;20204;-66
2023/09/03 01:34:40;;;;;;;10.60;8.18;;;;;;;17.04;63.23;100899.75;5083899;28;20208;-60
2023/09/03 01:37:11;;;;;;;23.85;17.45;;;;;;;17.02;62.85;100893.75;5089782;28;20207;-57
2023/09/03 01:39:39;;;;;;;11.20;8.45;;;;;;;17.01;62.60;100898.09;5088029;28;20319;-57
2023/09/03 01:42:09;;;;;;;11.25;9.07;;;;;;;17.02;62.36;100899.81;5085661;28;20564;-59
2023/09/03 01:44:39;;;;;;;9.52;7.80;;;;;;;17.05;62.53;100894.53;5092949;28;20210;-56
2023/09/03 01:47:13;;;;;;;11.27;8.40;;;;;;;17.09;62.38;100890.09;5097914;28;20200;-59
2023/09/03 01:49:48;;;;;;;9.70;8.02;;;;;;;17.10;62.33;100894.41;5090126;28;20204;-60
2023/09/03 01:52:32;;;;;;;8.98;7.45;;;;;;;17.11;62.51;100896.94;5083554;28;20212;-57
2023/09/03 01:55:01;;;;;;;9.15;7.75;;;;;;;17.09;62.48;100895.31;5090418;28;20317;-63
2023/09/03 01:57:34;;;;;;;12.90;8.73;;;;;;;17.05;62.74;100896.28;5086621;28;20232;-59
2023/09/03 02:00:06;;;;;;;9.80;8.00;;;;;;;17.00;62.83;100890.31;5089489;28;20665;-59
2023/09/03 02:02:36;;;;;;;9.88;7.28;;;;;;;16.95;62.60;100887.81;5079905;28;20258;-59
2023/09/03 02:05:05;;;;;;;9.88;8.05;;;;;;;16.96;62.51;100893.88;5088895;28;20201;-59
2023/09/03 02:07:33;;;;;;;8.75;7.80;;;;;;;16.96;62.38;100888.69;5085198;28;20678;-58
2023/09/03 02:10:01;;;;;;;10.40;8.27;;;;;;;16.96;62.39;100884.31;5095322;28;20201;-59
2023/09/03 02:12:28;;;;;;;9.50;8.00;;;;;;;16.95;62.27;100879.16;5086555;28;20223;-58
2023/09/03 02:14:56;;;;;;;9.93;7.90;;;;;;;16.94;62.21;100875.72;5082450;28;20203;-59
2023/09/03 02:17:26;;;;;;;10.25;7.72;;;;;;;16.96;62.30;100879.13;5085986;28;20247;-58
2023/09/03 02:19:55;;;;;;;10.23;7.78;;;;;;;16.95;61.84;100873.97;5089384;28;20597;-57
2023/09/03 02:22:23;;;;;;;13.80;8.43;;;;;;;16.94;62.21;100869.63;5082595;28;20721;-69
2023/09/03 02:24:51;;;;;;;12.68;8.45;;;;;;;16.93;62.37;100867.91;5086448;28;22194;-58
2023/09/03 02:27:19;;;;;;;11.02;8.15;;;;;;;16.90;62.27;100864.50;5084893;28;20254;-58
2023/09/03 02:29:47;;;;;;;9.85;7.35;;;;;;;16.88;61.93;100861.06;5091384;28;20564;-69
2023/09/03 02:32:18;;;;;;;8.88;7.15;;;;;;;16.86;62.16;100862.88;5088985;28;20691;-59
2023/09/03 02:34:47;;;;;;;10.00;7.72;;;;;;;16.83;62.65;100865.56;5087428;28;20200;-58
2023/09/03 02:37:18;;;;;;;10.07;8.70;;;;;;;16.79;62.89;100871.72;5088817;28;20212;-58
2023/09/03 02:39:46;;;;;;;10.25;7.78;;;;;;;16.76;63.25;100861.38;5092733;28;20226;-58
2023/09/03 02:42:14;;;;;;;10.63;8.30;;;;;;;16.70;63.48;100858.88;5086387;28;20201;-58
2023/09/03 02:44:42;;;;;;;11.20;8.70;;;;;;;16.62;64.09;100853.88;5081031;28;20207;-59
2023/09/03 02:47:10;;;;;;;12.07;7.72;;;;;;;16.59;64.54;100853.09;5091260;28;20206;-57
2023/09/03 02:49:38;;;;;;;11.93;8.07;;;;;;;16.54;64.95;100844.53;5095621;28;20603;-58
2023/09/03 02:52:07;;;;;;;9.82;8.38;;;;;;;16.51;65.33;100845.47;5085705;28;20212;-59
2023/09/03 02:54:35;;;;;;;10.45;8.05;;;;;;;16.49;65.41;100843.78;5088783;28;20212;-59
2023/09/03 02:57:03;;;;;;;10.85;7.80;;;;;;;16.46;65.45;100842.13;5090174;28;20205;-59
2023/09/03 02:59:32;;;;;;;10.07;8.43;;;;;;;16.43;65.31;100842.19;5089382;28;20205;-59
2023/09/03 03:02:00;;;;;;;8.32;7.10;;;;;;;16.40;65.40;100840.50;5090350;28;20208;-60
2023/09/03 03:04:27;;;;;;;10.00;8.30;;;;;;;16.40;65.63;100843.09;5090799;28;20208;-61
2023/09/03 03:06:55;;;;;;;12.32;8.32;;;;;;;16.39;65.22;100838.78;5089938;28;20201;-57
2023/09/03 03:09:25;;;;;;;11.65;7.93;;;;;;;16.38;65.26;100838.81;5095091;28;20251;-61
2023/09/03 03:11:53;;;;;;;10.68;7.80;;;;;;;16.37;64.94;100834.50;5087253;28;20252;-64
2023/09/03 03:14:20;;;;;;;9.48;7.28;;;;;;;16.34;64.70;100831.97;5086119;28;20209;-58
2023/09/03 03:16:48;;;;;;;9.23;7.78;;;;;;;16.36;65.17;100831.06;5087433;28;20201;-57
2023/09/03 03:19:16;;;;;;;8.80;7.50;;;;;;;16.36;65.34;100833.66;5092471;28;20276;-57
2023/09/03 03:21:44;;;;;;;10.00;7.03;;;;;;;16.35;65.10;100839.75;5077632;28;20228;-56
2023/09/03 03:24:13;;;;;;;10.30;7.60;;;;;;;16.36;64.86;100835.41;5084244;28;20208;-59
2023/09/03 03:26:42;;;;;;;9.98;7.07;;;;;;;16.35;64.00;100842.38;5086482;28;20239;-58
2023/09/03 03:29:10;;;;;;;8.35;6.68;;;;;;;16.30;64.58;100840.75;5090821;28;20227;-59
2023/09/03 03:31:38;;;;;;;10.38;7.15;;;;;;;16.32;65.14;100839.81;5087920;28;20233;-57
2023/09/03 03:34:06;;;;;;;9.50;7.75;;;;;;;16.34;65.09;100848.44;5081834;28;20232;-57
2023/09/03 03:36:34;;;;;;;10.55;7.68;;;;;;;16.29;65.20;100860.69;5090029;28;20205;-59
2023/09/03 03:39:02;;;;;;;13.40;7.23;;;;;;;16.24;65.57;100852.16;5091909;28;20204;-58
2023/09/03 03:41:30;;;;;;;9.93;7.93;;;;;;;16.20;65.33;100853.09;5092246;28;20192;-59
2023/09/03 03:44:00;;;;;;;11.63;8.30;;;;;;;16.22;65.03;100858.25;5091371;28;20264;-57
2023/09/03 03:46:27;;;;;;;9.23;7.70;;;;;;;16.21;65.11;100857.41;5088334;28;20663;-58
2023/09/03 03:48:55;;;;;;;9.80;7.68;;;;;;;16.20;64.72;100860.91;5089766;28;20205;-59
2023/09/03 03:51:23;;;;;;;12.05;8.40;;;;;;;16.18;64.96;100855.72;5090091;28;20263;-60
2023/09/03 03:53:51;;;;;;;10.27;7.97;;;;;;;16.19;64.89;100860.03;5081895;28;20611;-68
2023/09/03 03:56:22;;;;;;;13.20;7.65;;;;;;;16.19;64.39;100853.97;5087674;28;20221;-61
2023/09/03 03:58:53;;;;;;;12.65;8.00;;;;;;;16.14;64.47;100855.84;5091201;28;20193;-61
2023/09/03 04:01:23;;;;;;;9.65;8.13;;;;;;;16.13;65.26;100847.19;5081274;28;20258;-66
2023/09/03 04:03:52;;;;;;;10.23;8.30;;;;;;;16.15;64.33;100847.13;5089104;28;20678;-62
2023/09/03 04:06:21;;;;;;;9.40;7.53;;;;;;;16.14;64.95;100850.63;5089713;28;20218;-59
2023/09/03 04:08:49;;;;;;;12.88;7.90;;;;;;;16.16;65.70;100848.84;5089271;28;20200;-58
2023/09/03 04:11:19;;;;;;;11.32;7.95;;;;;;;16.18;66.07;100858.31;5087577;28;20283;-58
2023/09/03 04:13:47;;;;;;;9.18;7.63;;;;;;;16.20;65.97;100855.72;5091770;28;20204;-58
2023/09/03 04:16:18;;;;;;;10.65;8.18;;;;;;;16.21;66.35;100873.00;5087140;28;20201;-56
2023/09/03 04:18:48;;;;;;;9.52;7.60;;;;;;;16.23;66.41;100871.22;5092149;28;20197;-58
2023/09/03 04:21:17;;;;;;;11.07;8.18;;;;;;;16.22;66.10;100872.13;5087525;28;20269;-56
2023/09/03 04:23:45;;;;;;;12.27;7.73;;;;;;;16.24;65.68;100878.16;5088009;28;20296;-61
2023/09/03 04:26:13;;;;;;;9.13;7.70;;;;;;;16.25;65.37;100874.66;5081343;28;20214;-59
2023/09/03 04:28:41;;;;;;;12.68;8.73;;;;;;;16.27;65.09;100875.47;5080796;28;20205;-58
2023/09/03 04:31:10;;;;;;;11.90;8.48;;;;;;;16.36;64.90;100882.22;5087489;28;20196;-59
2023/09/03 04:33:38;;;;;;;11.20;8.20;;;;;;;16.42;64.89;100889.88;5089246;28;20233;-61
2023/09/03 04:36:08;;;;;;;15.40;9.23;;;;;;;16.48;65.13;100892.34;5086398;28;20201;-57
2023/09/03 04:38:36;;;;;;;12.93;8.30;;;;;;;16.50;65.44;100900.13;5082160;28;20612;-61
2023/09/03 04:41:05;;;;;;;9.52;8.23;;;;;;;16.55;65.76;100888.72;5085957;28;20576;-64
2023/09/03 04:43:33;;;;;;;12.30;8.63;;;;;;;16.65;65.49;100889.38;5083383;28;20323;-59
2023/09/03 04:46:01;;;;;;;10.88;8.55;;;;;;;16.78;64.97;100890.81;5089307;28;20271;-58
2023/09/03 04:48:29;;;;;;;12.40;8.35;;;;;;;16.88;64.13;100897.53;5087548;28;20731;-58
2023/09/03 04:51:03;;;;;;;10.05;8.32;;;;;;;17.00;63.79;100896.38;5077093;28;20197;-65
2023/09/03 04:53:33;;;;;;;11.02;8.90;;;;;;;17.09;63.07;100897.91;5084178;28;20329;-59
2023/09/03 04:56:01;;;;;;;12.38;8.57;;;;;;;17.21;62.54;100894.97;5097595;28;20227;-59
2023/09/03 04:58:29;;;;;;;9.38;8.38;;;;;;;17.30;62.08;100904.31;5090345;28;20211;-59
2023/09/03 05:00:57;;;;;;;12.40;7.70;;;;;;;17.32;62.21;100902.53;5089018;28;20233;-58
2023/09/03 05:03:25;;;;;;;12.38;8.45;;;;;;;17.33;62.01;100894.66;5083589;28;20652;-63
2023/09/03 05:05:53;;;;;;;10.43;8.18;;;;;;;17.38;61.88;100900.63;5088966;28;20254;-59
2023/09/03 05:08:21;;;;;;;11.00;8.25;;;;;;;17.41;61.71;100901.44;5087495;28;20204;-59
2023/09/03 05:10:51;;;;;;;12.00;8.23;;;;;;;17.43;61.75;100899.66;5081512;28;21601;-58
2023/09/03 05:13:19;;;;;;;10.27;8.60;;;;;;;17.49;61.64;100900.34;5086986;28;20266;-59
2023/09/03 05:15:50;;;;;;;9.80;8.15;;;;;;;17.53;61.46;100898.53;5080176;28;20207;-62
2023/09/03 05:18:18;;;;;;;11.43;8.27;;;;;;;17.59;61.26;100898.34;5081603;28;20240;-58
2023/09/03 05:20:46;;;;;;;10.80;8.40;;;;;;;17.60;61.45;100902.66;5091599;28;20201;-62
2023/09/03 05:23:14;;;;;;;9.60;8.05;;;;;;;17.62;61.31;100901.72;5090472;28;20200;-60
2023/09/03 05:25:42;;;;;;;9.70;7.97;;;;;;;17.66;61.22;100894.66;5081267;28;20209;-58
2023/09/03 05:28:11;;;;;;;12.35;8.95;;;;;;;17.66;61.27;100906.84;5085136;28;20207;-60
2023/09/03 05:30:39;;;;;;;10.23;8.65;;;;;;;17.63;61.10;100897.34;5085538;28;20553;-63
2023/09/03 05:33:07;;;;;;;13.55;8.07;;;;;;;17.60;61.21;100897.47;5084547;28;20702;-61
2023/09/03 05:35:35;;;;;;;12.63;9.27;;;;;;;17.58;61.45;100900.09;5081794;28;20660;-58
2023/09/03 05:38:04;;;;;;;11.35;8.80;;;;;;;17.56;61.69;100885.38;5086924;28;20228;-59
2023/09/03 05:40:32;;;;;;;12.73;8.68;;;;;;;17.57;61.54;100887.13;5083103;28;20255;-59
2023/09/03 05:43:00;;;;;;;11.45;8.48;;;;;;;17.57;61.34;100892.31;5090573;28;20628;-58
2023/09/03 05:45:29;;;;;;;12.25;8.60;;;;;;;17.57;61.26;100889.72;5085350;28;20986;-58
2023/09/03 05:47:57;;;;;;;8.85;7.32;;;;;;;17.58;61.11;100888.81;5081201;28;20192;-58
2023/09/03 05:50:25;;;;;;;10.93;8.52;;;;;;;17.60;61.09;100897.47;5084710;28;20208;-57
2023/09/03 05:52:53;;;;;;;10.70;8.40;;;;;;;17.65;61.43;100912.97;5084557;28;20216;-61
2023/09/03 05:55:21;;;;;;;9.38;7.85;;;;;;;17.70;61.32;100908.47;5080227;28;20204;-58
2023/09/03 05:57:53;;;;;;;10.95;8.88;;;;;;;17.75;61.41;100911.81;5091583;28;20307;-64
2023/09/03 06:00:21;;;;;;;12.80;8.80;;;;;;;17.78;61.47;100911.75;5086972;28;20208;-59
2023/09/03 06:02:50;;;;;;;12.35;8.23;;;;;;;17.78;61.35;100917.81;5089151;28;20644;-59
2023/09/03 06:05:19;;;;;;;10.35;7.95;;;;;;;17.76;61.25;100916.16;5096985;28;20214;-60
2023/09/03 06:07:47;;;;;;;11.23;8.13;;;;;;;17.71;60.99;100911.06;5095244;28;20200;-58
2023/09/03 06:10:15;;;;;;;9.07;7.63;;;;;;;17.67;61.14;100916.38;5091075;28;20652;-57
2023/09/03 06:12:43;;;;;;;12.35;8.52;;;;;;;17.71;61.58;100911.06;5089282;28;20266;-59
2023/09/03 06:15:10;;;;;;;9.25;7.35;;;;;;;17.82;61.21;100916.88;5094419;28;20277;-61
2023/09/03 06:17:38;;;;;;;8.75;7.60;;;;;;;18.06;60.81;100915.31;5090901;28;20309;-64
2023/09/03 06:20:10;;;;;;;8.43;7.32;;;;;;;18.32;59.74;100918.91;5092158;28;20904;-60
2023/09/03 06:22:38;;;;;;;11.25;7.80;;;;;;;18.60;58.91;100929.38;5091756;28;20641;-58
2023/09/03 06:25:07;;;;;;;12.65;7.13;;;;;;;18.97;58.00;100928.25;5097078;28;20204;-58
2023/09/03 06:27:35;;;;;;;10.38;7.40;;;;;;;19.21;56.39;100927.44;5095973;28;20208;-57
2023/09/03 06:30:03;;;;;;;8.60;7.15;;;;;;;19.35;55.90;100933.97;5093533;28;20466;-59
2023/09/03 06:32:31;;;;;;;11.43;6.70;;;;;;;19.40;56.08;100932.06;5089189;28;20250;-60
2023/09/03 06:34:59;;;;;;;10.10;7.13;;;;;;;19.57;55.83;100940.19;5095857;28;20212;-59
2023/09/03 06:37:28;;;;;;;10.38;6.32;;;;;;;19.86;55.46;100935.72;5085379;28;20226;-58
2023/09/03 06:39:56;;;;;;;7.35;5.88;;;;;;;20.19;53.75;100934.50;5094567;28;20232;-59
2023/09/03 06:42:26;;;;;;;8.05;6.20;;;;;;;20.45;53.08;100940.50;5094526;28;20248;-59
2023/09/03 06:44:54;;;;;;;8.13;5.88;;;;;;;20.85;52.86;100939.00;5085504;28;20227;-58
2023/09/03 06:47:22;;;;;;;7.95;5.90;;;;;;;21.30;51.11;100930.16;5085325;28;20710;-59
2023/09/03 06:49:51;;;;;;;8.02;5.60;;;;;;;21.74;49.78;100925.66;5094273;28;20250;-57
2023/09/03 06:52:19;;;;;;;10.88;5.55;;;;;;;22.28;48.79;100928.53;5085311;28;20213;-61
2023/09/03 06:54:49;;;;;;;7.32;5.35;;;;;;;22.89;46.58;100928.25;5094559;28;20228;-58
2023/09/03 06:57:18;;;;;;;6.35;4.63;;;;;;;23.47;44.97;100927.16;5090968;28;20207;-59
2023/09/03 06:59:56;;;;;;;4.93;4.43;;;;;;;24.25;43.04;100923.06;5091027;28;20214;-60
2023/09/03 07:02:25;;;;;;;7.43;4.82;;;;;;;25.04;41.76;100923.88;5082073;28;20202;-57
2023/09/03 07:04:53;;;;;;;5.57;4.97;;;;;;;25.94;39.82;100925.59;5090244;28;20315;-57
2023/09/03 07:07:21;;;;;;;5.32;4.22;;;;;;;27.00;37.96;100932.06;5089897;28;20200;-60
2023/09/03 07:09:50;;;;;;;5.65;4.10;;;;;;;28.01;35.19;100927.00;5083991;28;20598;-59
2023/09/03 07:12:18;;;;;;;5.72;4.03;;;;;;;28.16;33.31;100939.16;5092196;28;20609;-61
2023/09/03 07:14:47;;;;;;;5.72;3.40;;;;;;;27.37;34.23;100941.06;5092840;28;20303;-60
2023/09/03 07:17:14;;;;;;;5.22;3.83;;;;;;;26.96;35.52;100936.72;5088283;28;20208;-60
2023/09/03 07:19:43;;;;;;;4.45;3.42;;;;;;;27.26;34.76;100937.47;5097784;28;20206;-60
2023/09/03 07:22:11;;;;;;;4.03;3.30;;;;;;;26.66;34.63;100941.38;5088214;28;20200;-60
2023/09/03 07:24:39;;;;;;;4.43;3.67;;;;;;;25.87;36.91;100942.75;5082357;28;20223;-60
2023/09/03 07:27:08;;;;;;;5.40;3.45;;;;;;;25.18;38.06;100949.47;5084547;28;20596;-58
2023/09/03 07:29:36;;;;;;;4.25;3.20;;;;;;;26.01;39.61;100948.03;5089793;28;20291;-60
2023/09/03 07:32:05;;;;;;;3.53;3.08;;;;;;;28.03;35.47;100948.97;5090319;28;20212;-61
2023/09/03 07:34:33;;;;;;;3.47;3.15;;;;;;;30.40;30.66;100936.41;5083758;28;20672;-62
2023/09/03 07:37:01;;;;;;;5.53;3.20;;;;;;;32.63;27.58;100948.53;5090101;28;20208;-66
2023/09/03 07:39:29;;;;;;;3.50;2.47;;;;;;;34.18;24.82;100938.59;5090879;28;20216;-58
2023/09/03 07:41:57;;;;;;;3.20;2.60;;;;;;;35.53;23.02;100934.00;5088623;28;20651;-60
2023/09/03 07:44:26;;;;;;;5.25;2.50;;;;;;;36.82;21.67;100940.00;5089517;28;20656;-58
2023/09/03 07:46:54;;;;;;;3.15;2.78;;;;;;;37.76;20.33;100941.31;5085991;28;20569;-58
2023/09/03 07:49:23;;;;;;;3.17;2.88;;;;;;;38.59;20.11;100939.91;5091716;28;20281;-61
2023/09/03 07:51:51;;;;;;;2.67;2.47;;;;;;;38.86;19.56;100947.50;5091860;28;20286;-58
2023/09/03 07:54:19;;;;;;;2.97;2.70;;;;;;;37.34;19.69;100949.59;5088743;28;20645;-58
2023/09/03 07:56:47;;;;;;;2.33;2.13;;;;;;;35.44;21.94;100951.00;5083225;28;20634;-57
2023/09/03 07:59:15;;;;;;;2.60;2.40;;;;;;;33.67;23.34;100957.63;5086995;28;20236;-61
2023/09/03 08:01:44;;;;;;;3.13;2.50;;;;;;;31.86;25.72;100967.75;5083831;28;20640;-58
2023/09/03 08:04:13;;;;;;;4.18;2.70;;;;;;;30.21;28.40;100971.63;5088651;28;20196;-59
2023/09/03 08:06:41;;;;;;;4.13;2.90;;;;;;;28.78;30.66;100973.59;5100926;28;20200;-58
2023/09/03 08:09:09;;;;;;;3.75;3.17;;;;;;;27.58;32.45;100973.19;5078693;28;20209;-58
2023/09/03 08:11:37;;;;;;;4.82;2.90;;;;;;;26.63;34.58;100970.66;5087915;28;20201;-58
2023/09/03 08:14:06;;;;;;;3.80;2.72;;;;;;;25.91;36.21;100973.31;5088110;28;20294;-58
2023/09/03 08:16:34;;;;;;;3.15;2.85;;;;;;;25.47;37.26;100975.94;5080729;28;20209;-60
2023/09/03 08:19:03;;;;;;;2.60;2.28;;;;;;;25.30;38.11;100977.78;5090451;28;20872;-61
2023/09/03 08:21:31;;;;;;;3.13;2.47;;;;;;;25.15;38.16;100972.53;5094181;28;20204;-60
2023/09/03 08:23:59;;;;;;;3.28;2.67;;;;;;;25.06;38.51;100977.38;5088453;28;20201;-57
2023/09/03 08:26:27;;;;;;;3.53;2.63;;;;;;;24.99;39.14;100973.38;5087150;28;20693;-57
2023/09/03 08:28:55;;;;;;;4.15;2.85;;;;;;;24.98;39.17;100984.88;5083561;28;20282;-60
2023/09/03 08:31:23;;;;;;;2.95;2.40;;;;;;;25.05;38.88;100983.59;5085327;28;20303;-59
2023/09/03 08:33:53;;;;;;;4.20;2.90;;;;;;;25.39;39.00;100978.19;5089965;28;20193;-58
2023/09/03 08:36:24;;;;;;;2.85;2.55;;;;;;;26.36;38.31;100975.84;5091577;28;20224;-62
2023/09/03 08:38:53;;;;;;;4.13;3.20;;;;;;;27.18;36.66;100969.72;5089880;28;20706;-57
2023/09/03 08:41:22;;;;;;;3.85;3.00;;;;;;;27.54;35.17;100965.53;5085408;28;20247;-60
2023/09/03 08:43:54;;;;;;;4.82;2.85;;;;;;;28.06;34.93;100960.19;5087986;28;20729;-57
2023/09/03 08:46:26;;;;;;;3.58;3.25;;;;;;;29.92;32.03;100962.41;5082038;28;20205;-56
2023/09/03 08:48:54;;;;;;;3.40;2.25;;;;;;;31.66;29.12;100952.59;5081886;28;20220;-58
2023/09/03 08:51:25;;;;;;;3.70;2.20;;;;;;;33.02;26.06;100961.06;5089856;28;20204;-58
2023/09/03 08:53:56;;;;;;;4.40;2.72;;;;;;;32.65;25.80;100959.03;5082065;28;20203;-61
2023/09/03 08:56:25;;;;;;;4.55;2.42;;;;;;;31.49;27.15;100962.06;5081790;28;20211;-57
2023/09/03 08:58:54;;;;;;;6.05;2.92;;;;;;;30.53;28.48;100962.88;5085469;28;20266;-58
2023/09/03 09:01:24;;;;;;;2.67;2.47;;;;;;;29.97;29.63;100954.91;5087964;28;20200;-59
2023/09/03 09:03:54;;;;;;;3.72;3.22;;;;;;;29.99;30.32;100955.66;5078440;28;20208;-57
2023/09/03 09:06:24;;;;;;;3.10;2.80;;;;;;;30.77;30.71;100952.91;5086542;28;20205;-56
2023/09/03 09:08:53;;;;;;;4.70;2.95;;;;;;;31.18;28.84;100950.44;5080416;28;20212;-57
2023/09/03 09:11:21;;;;;;;4.18;3.30;;;;;;;31.08;28.80;100950.38;5089656;28;20200;-57
2023/09/03 09:13:56;;;;;;;3.17;2.60;;;;;;;31.34;29.19;100950.88;5086931;28;20692;-59
2023/09/03 09:16:24;;;;;;;4.30;2.78;;;;;;;31.64;28.76;100951.91;5088213;28;20233;-58
2023/09/03 09:18:52;;;;;;;3.60;2.72;;;;;;;31.75;28.87;100949.16;5082943;28;20228;-61
2023/09/03 09:21:21;;;;;;;2.80;2.30;;;;;;;31.78;28.34;100943.56;5090805;28;20209;-63
2023/09/03 09:23:51;;;;;;;2.08;1.60;;;;;;;31.60;27.48;100946.00;5098800;28;20208;-62
2023/09/03 09:26:22;;;;;;;3.28;1.88;;;;;;;31.24;28.07;100940.13;5084606;28;20660;-56
2023/09/03 09:29:01;;;;;;;3.50;1.90;;;;;;;30.39;28.90;100937.41;5078422;28;20224;-57
2023/09/03 09:31:30;;;;;;;2.60;1.98;;;;;;;29.42;30.96;100951.19;5088475;28;20557;-63
2023/09/03 09:34:00;;;;;;;2.55;2.25;;;;;;;28.66;32.16;100942.66;5085072;28;20243;-58
2023/09/03 09:36:30;;;;;;;3.13;2.35;;;;;;;28.18;32.99;100942.56;5079885;28;20216;-57
2023/09/03 09:39:07;;;;;;;2.40;1.92;;;;;;;27.72;33.45;100951.03;5073394;28;20938;-58
2023/09/03 09:41:38;;;;;;;2.47;2.17;;;;;;;27.14;34.66;100949.72;5084127;28;20204;-56
2023/09/03 09:44:12;;;;;;;3.20;2.50;;;;;;;26.41;36.09;100948.19;5078786;28;20698;-58
2023/09/03 09:46:40;;;;;;;3.47;2.65;;;;;;;25.69;38.27;100963.16;5081888;28;20564;-58
2023/09/03 09:49:08;;;;;;;6.32;2.60;;;;;;;24.88;39.61;100973.13;5081428;28;20201;-59
2023/09/03 09:51:36;;;;;;;3.08;2.17;;;;;;;24.29;41.60;100972.00;5080527;28;20212;-61
2023/09/03 09:54:06;;;;;;;3.60;2.55;;;;;;;23.69;42.48;100980.41;5085568;28;20243;-58
2023/09/03 09:56:35;;;;;;;5.00;2.55;;;;;;;23.32;44.10;100984.00;5086437;28;20559;-60
2023/09/03 09:59:04;;;;;;;3.17;2.35;;;;;;;23.13;44.96;100984.94;5089001;28;20228;-57
2023/09/03 10:01:46;;;;;;;4.00;2.45;;;;;;;23.03;45.90;100980.19;5084575;28;20192;-57
2023/09/03 10:04:25;;;;;;;2.90;2.15;;;;;;;23.19;45.97;100977.66;5084569;28;20208;-61
2023/09/03 10:06:54;;;;;;;2.60;2.15;;;;;;;23.63;46.05;100978.91;5084190;28;20610;-57
2023/09/03 10:09:24;;;;;;;3.78;2.15;;;;;;;24.30;44.38;100977.19;5082460;28;20595;-62
2023/09/03 10:11:52;;;;;;;3.28;2.50;;;;;;;25.09;43.06;100962.31;5081843;28;20250;-59
2023/09/03 10:14:20;;;;;;;2.75;2.53;;;;;;;26.00;40.85;100956.91;5086545;28;20219;-61
2023/09/03 10:16:48;;;;;;;2.83;2.58;;;;;;;27.07;39.19;100958.97;5084658;28;20225;-63
2023/09/03 10:19:20;;;;;;;2.80;2.28;;;;;;;28.18;36.34;100956.66;5084007;28;20201;-60
2023/09/03 10:21:51;;;;;;;3.08;1.90;;;;;;;29.07;33.79;100946.75;5085202;28;20198;-58
2023/09/03 10:24:25;;;;;;;2.58;2.05;;;;;;;29.87;32.16;100957.47;5088991;28;20670;-60
2023/09/03 10:26:57;;;;;;;2.70;1.73;;;;;;;30.68;30.49;100953.66;5080236;28;20629;-67
2023/09/03 10:29:26;;;;;;;1.80;1.60;;;;;;;31.46;29.23;100938.34;5085252;28;20200;-60
2023/09/03 10:31:59;;;;;;;2.10;1.90;;;;;;;32.53;27.91;100941.47;5089785;28;20258;-65
2023/09/03 10:34:29;;;;;;;1.52;1.42;;;;;;;33.15;26.36;100933.09;5078758;28;20201;-61
2023/09/03 10:37:04;;;;;;;1.85;1.60;;;;;;;33.57;25.77;100927.41;5092225;28;20213;-60
2023/09/03 10:39:34;;;;;;;1.85;1.73;;;;;;;33.82;24.94;100927.75;5077097;28;20201;-64
2023/09/03 10:42:30;;;;;;;1.95;1.83;;;;;;;33.45;24.85;100936.56;5087587;28;20211;-60
2023/09/03 10:44:59;;;;;;;1.30;1.20;;;;;;;33.24;24.88;100939.38;5084538;28;20220;-61
2023/09/03 10:47:28;;;;;;;1.73;1.60;;;;;;;32.78;25.43;100938.28;5086280;28;20295;-60
2023/09/03 10:49:56;;;;;;;1.67;1.27;;;;;;;32.48;25.98;100947.25;5089045;28;20579;-61
2023/09/03 10:52:40;;;;;;;1.95;1.70;;;;;;;31.92;26.60;100953.03;5085231;28;20727;-60
2023/09/03 10:55:17;;;;;;;2.33;1.45;;;;;;;30.98;27.51;100950.31;5084304;28;20222;-64
2023/09/03 10:57:46;;;;;;;1.38;1.23;;;;;;;30.55;29.07;100940.47;5093277;28;20203;-65
2023/09/03 11:00:17;;;;;;;2.03;1.55;;;;;;;29.90;29.75;100945.72;5092290;28;20278;-69
2023/09/03 11:02:45;;;;;;;2.60;1.67;;;;;;;28.97;31.68;100956.31;5092455;28;20999;-61
2023/09/03 11:05:20;;;;;;;1.33;1.23;;;;;;;28.97;32.83;100959.81;5094478;28;20638;-61
2023/09/03 11:07:50;;;;;;;2.17;1.30;;;;;;;29.32;31.22;100951.06;5094592;28;20604;-59
2023/09/03 11:10:42;;;;;;;2.25;1.63;;;;;;;29.81;30.27;100948.13;5092430;28;20664;-61
2023/09/03 11:13:13;;;;;;;1.80;1.25;;;;;;;30.09;29.92;100945.97;5098539;28;20196;-63
2023/09/03 11:16:01;;;;;;;1.73;1.20;;;;;;;30.09;28.68;100935.34;5094035;28;20219;-60
2023/09/03 11:18:30;;;;;;;1.08;1.02;;;;;;;29.33;29.60;100936.81;5089034;28;20204;-65
2023/09/03 11:20:59;;;;;;;4.18;3.78;;;;;;;28.17;31.38;100943.53;5093993;28;20330;-61
2023/09/03 11:23:29;;;;;;;2.20;1.40;;;;;;;27.21;33.01;100946.56;5091774;28;20240;-61
2023/09/03 11:26:05;;;;;;;1.30;1.23;;;;;;;26.52;33.88;100947.53;5092023;28;20196;-65
2023/09/03 11:28:36;;;;;;;1.92;1.10;;;;;;;26.06;35.07;100941.63;5092003;28;20253;-59
2023/09/03 11:31:04;;;;;;;1.40;1.20;;;;;;;25.92;36.01;100943.34;5093673;28;20308;-62
2023/09/03 11:33:32;;;;;;;1.38;1.00;;;;;;;26.00;36.17;100948.16;5092167;28;20212;-59